createdAt,value
2022-12-13T00:01:24.692Z,-2.99
2022-12-13T00:03:59.562Z,-3.01
2022-12-13T00:06:26.998Z,-3.03
2022-12-13T00:08:54.285Z,-3.04
2022-12-13T00:11:21.409Z,-3.04
2022-12-13T00:13:48.558Z,-3.05
2022-12-13T00:16:22.521Z,-3.05
2022-12-13T00:18:51.349Z,-3.07
2022-12-13T00:21:20.458Z,-3.08
2022-12-13T00:23:47.891Z,-3.09
2022-12-13T00:26:18.653Z,-3.10
2022-12-13T00:28:49.029Z,-3.10
2022-12-13T00:31:53.332Z,-3.12
2022-12-13T00:34:07.106Z,-3.13
2022-12-13T00:36:33.984Z,-3.16
2022-12-13T00:39:00.889Z,-3.18
2022-12-13T00:41:34.667Z,-3.19
2022-12-13T00:44:02.832Z,-3.20
2022-12-13T00:46:30.588Z,-3.23
2022-12-13T00:49:00.590Z,-3.24
2022-12-13T00:51:30.599Z,-3.24
2022-12-13T00:53:58.546Z,-3.26
2022-12-13T00:56:33.825Z,-3.27
2022-12-13T01:00:34.641Z,-3.26
2022-12-13T01:03:20.172Z,-3.35
2022-12-13T01:06:14.230Z,-3.37
2022-12-13T01:08:34.831Z,-3.38
2022-12-13T01:11:01.697Z,-3.39
2022-12-13T01:13:28.537Z,-3.39
2022-12-13T01:15:55.309Z,-3.37
2022-12-13T01:18:22.068Z,-3.38
2022-12-13T01:21:07.826Z,-3.38
2022-12-13T01:23:34.786Z,-3.40
2022-12-13T01:26:06.640Z,-3.39
2022-12-13T01:28:33.942Z,-3.41
2022-12-13T01:31:04.916Z,-3.43
2022-12-13T01:33:32.765Z,-3.44
2022-12-13T01:36:06.239Z,-3.45
2022-12-13T01:38:37.931Z,-3.46
2022-12-13T01:41:08.913Z,-3.50
2022-12-13T01:43:44.749Z,-3.51
2022-12-13T01:46:14.148Z,-3.51
2022-12-13T01:48:49.590Z,-3.51
2022-12-13T01:51:19.566Z,-3.54
2022-12-13T01:53:48.916Z,-3.54
2022-12-13T01:56:28.361Z,-3.54
2022-12-13T01:58:56.716Z,-3.56
2022-12-13T02:01:24.564Z,-3.55
2022-12-13T02:03:51.350Z,-3.55
2022-12-13T02:06:27.453Z,-3.55
2022-12-13T02:08:54.557Z,-3.56
2022-12-13T02:11:21.915Z,-3.57
2022-12-13T02:13:48.744Z,-3.59
2022-12-13T02:16:42.813Z,-3.59
2022-12-13T02:20:02.565Z,-3.64
2022-12-13T02:23:11.261Z,-3.68
2022-12-13T02:26:19.396Z,-3.73
2022-12-13T02:29:13.149Z,-3.73
2022-12-13T02:32:29.716Z,-3.75
2022-12-13T02:35:11.265Z,-3.79
2022-12-13T02:37:49.935Z,-3.78
2022-12-13T02:40:28.231Z,-3.77
2022-12-13T02:43:11.892Z,-3.76
2022-12-13T02:45:45.910Z,-3.77
2022-12-13T02:48:17.104Z,-3.77
2022-12-13T02:50:46.402Z,-3.77
2022-12-13T02:53:14.206Z,-3.78
2022-12-13T02:55:41.156Z,-3.77
2022-12-13T02:58:12.324Z,-3.77
2022-12-13T03:01:28.939Z,-3.79
2022-12-13T03:04:26.116Z,-3.82
2022-12-13T03:07:12.169Z,-3.84
2022-12-13T03:10:02.748Z,-3.86
2022-12-13T03:13:09.821Z,-3.88
2022-12-13T03:15:49.810Z,-3.92
2022-12-13T03:18:21.528Z,-3.92
2022-12-13T03:20:52.622Z,-3.93
2022-12-13T03:23:21.354Z,-3.92
2022-12-13T03:25:55.744Z,-3.92
2022-12-13T03:28:23.779Z,-3.92
2022-12-13T03:30:50.622Z,-3.94
2022-12-13T03:33:17.622Z,-3.94
2022-12-13T03:35:45.737Z,-3.94
2022-12-13T03:38:22.414Z,-3.95
2022-12-13T03:40:53.531Z,-3.97
2022-12-13T03:43:21.813Z,-3.98
2022-12-13T03:45:52.942Z,-3.98
2022-12-13T03:48:21.693Z,-3.97
2022-12-13T03:50:51.139Z,-3.97
2022-12-13T03:53:22.735Z,-3.99
2022-12-13T03:56:01.868Z,-4.00
2022-12-13T03:58:35.626Z,-3.98
2022-12-13T04:01:14.527Z,-3.99
2022-12-13T04:03:44.095Z,-3.99
2022-12-13T04:06:11.977Z,-4.00
2022-12-13T04:08:39.832Z,-4.01
2022-12-13T04:11:26.243Z,-4.01
2022-12-13T04:13:54.459Z,-4.03
2022-12-13T04:16:22.778Z,-4.03
2022-12-13T04:18:49.635Z,-4.05
2022-12-13T04:21:16.444Z,-4.04
2022-12-13T04:23:43.255Z,-4.04
2022-12-13T04:26:10.294Z,-4.05
2022-12-13T04:28:37.089Z,-4.05
2022-12-13T04:31:04.394Z,-4.06
2022-12-13T04:33:32.665Z,-4.06
2022-12-13T04:35:59.773Z,-4.07
2022-12-13T04:38:26.625Z,-4.08
2022-12-13T04:40:53.412Z,-4.07
2022-12-13T04:43:20.212Z,-4.07
2022-12-13T04:45:47.053Z,-4.07
2022-12-13T04:48:13.922Z,-4.05
2022-12-13T04:51:01.134Z,-4.02
2022-12-13T04:53:30.076Z,-3.98
2022-12-13T04:55:57.024Z,-3.92
2022-12-13T04:58:23.820Z,-3.86
2022-12-13T05:00:50.606Z,-3.80
2022-12-13T05:03:17.435Z,-3.75
2022-12-13T05:05:44.273Z,-3.68
2022-12-13T05:08:11.155Z,-3.64
2022-12-13T05:10:38.259Z,-3.59
2022-12-13T05:13:06.131Z,-3.56
2022-12-13T05:15:33.902Z,-3.52
2022-12-13T05:18:09.511Z,-3.51
2022-12-13T05:20:37.681Z,-3.48
2022-12-13T05:23:04.457Z,-3.48
2022-12-13T05:25:31.217Z,-3.48
2022-12-13T05:27:58.008Z,-3.49
2022-12-13T05:30:24.792Z,-3.49
2022-12-13T05:32:51.605Z,-3.48
2022-12-13T05:35:22.646Z,-3.50
2022-12-13T05:37:54.315Z,-3.54
2022-12-13T05:40:23.579Z,-3.56
2022-12-13T05:42:50.478Z,-3.59
2022-12-13T05:45:20.752Z,-3.62
2022-12-13T05:47:48.346Z,-3.65
2022-12-13T05:57:18.532Z,-3.83
2022-12-13T05:59:45.403Z,-3.82
2022-12-13T06:02:16.773Z,-3.84
2022-12-13T06:04:46.629Z,-3.84
2022-12-13T06:07:14.172Z,-3.82
2022-12-13T06:09:40.984Z,-3.82
2022-12-13T06:12:31.236Z,-3.81
2022-12-13T06:14:54.596Z,-3.80
2022-12-13T06:17:36.645Z,-3.79
2022-12-13T06:20:23.810Z,-3.78
2022-12-13T06:22:52.783Z,-3.79
2022-12-13T06:25:30.694Z,-3.77
2022-12-13T06:28:01.078Z,-3.78
2022-12-13T06:30:29.591Z,-3.76
2022-12-13T06:32:57.078Z,-3.75
2022-12-13T06:35:28.989Z,-3.75
2022-12-13T06:38:01.385Z,-3.74
2022-12-13T06:40:33.657Z,-3.73
2022-12-13T06:43:00.786Z,-3.73
2022-12-13T06:45:27.563Z,-3.71
2022-12-13T06:47:55.230Z,-3.68
2022-12-13T06:50:21.993Z,-3.66
2022-12-13T06:52:48.879Z,-3.64
2022-12-13T06:55:23.659Z,-3.61
2022-12-13T06:57:51.593Z,-3.60
2022-12-13T07:00:22.166Z,-3.61
2022-12-13T07:02:55.940Z,-3.59
2022-12-13T07:05:23.405Z,-3.59
2022-12-13T07:07:50.289Z,-3.59
2022-12-13T07:10:22.723Z,-3.59
2022-12-13T07:12:50.286Z,-3.59
2022-12-13T07:15:19.973Z,-3.57
2022-12-13T07:17:50.704Z,-3.57
2022-12-13T07:20:19.105Z,-3.54
2022-12-13T07:22:49.283Z,-3.55
2022-12-13T07:25:28.516Z,-3.53
2022-12-13T07:28:03.245Z,-3.53
2022-12-13T07:30:33.211Z,-3.52
2022-12-13T07:33:02.744Z,-3.51
2022-12-13T07:35:30.150Z,-3.50
2022-12-13T07:37:57.002Z,-3.49
2022-12-13T07:40:23.912Z,-3.47
2022-12-13T07:42:55.340Z,-3.45
2022-12-13T07:45:23.955Z,-3.45
2022-12-13T07:47:51.083Z,-3.44
2022-12-13T07:50:24.620Z,-3.44
2022-12-13T07:52:53.324Z,-3.43
2022-12-13T07:55:23.029Z,-3.42
2022-12-13T07:58:13.244Z,-3.39
2022-12-13T08:00:45.985Z,-3.38
2022-12-13T08:03:25.236Z,-3.35
2022-12-13T08:06:08.680Z,-3.32
2022-12-13T08:08:35.776Z,-3.29
2022-12-13T08:11:08.626Z,-3.26
2022-12-13T08:13:36.184Z,-3.23
2022-12-13T08:16:28.025Z,-3.17
2022-12-13T08:18:53.760Z,-3.13
2022-12-13T08:24:20.662Z,-3.05
2022-12-13T08:26:47.624Z,-3.00
2022-12-13T08:29:23.207Z,-2.94
2022-12-13T08:32:05.260Z,-2.89
2022-12-13T08:34:32.120Z,-2.83
2022-12-13T08:37:02.126Z,-2.77
2022-12-13T08:39:36.927Z,-2.70
2022-12-13T08:42:19.558Z,-2.67
2022-12-13T08:44:49.839Z,-2.61
2022-12-13T08:47:23.152Z,-2.56
2022-12-13T08:50:02.217Z,-2.49
2022-12-13T08:52:40.649Z,-2.45
2022-12-13T08:55:13.711Z,-2.40
2022-12-13T08:57:42.844Z,-2.33
2022-12-13T09:00:17.543Z,-2.28
2022-12-13T09:02:44.493Z,-2.21
2022-12-13T09:05:12.829Z,-2.15
2022-12-13T09:07:40.942Z,-2.09
2022-12-13T09:10:26.636Z,-2.03
2022-12-13T09:13:01.640Z,-1.96
2022-12-13T09:15:34.270Z,-1.91
2022-12-13T09:18:05.036Z,-1.85
2022-12-13T09:20:40.886Z,-1.79
2022-12-13T09:23:14.019Z,-1.71
2022-12-13T09:26:05.220Z,-1.66
2022-12-13T09:28:35.100Z,-1.59
2022-12-13T09:31:16.179Z,-1.53
2022-12-13T09:33:44.419Z,-1.47
2022-12-13T09:36:15.771Z,-1.42
2022-12-13T09:38:42.729Z,-1.34
2022-12-13T09:41:28.913Z,-1.29
2022-12-13T09:44:31.617Z,-1.22
2022-12-13T09:47:13.344Z,-1.18
2022-12-13T09:49:44.297Z,-1.11
2022-12-13T09:52:22.445Z,-1.03
2022-12-13T09:54:55.971Z,-0.97
2022-12-13T09:57:34.163Z,-0.91
2022-12-13T10:00:23.792Z,-0.85
2022-12-13T10:02:57.853Z,-0.78
2022-12-13T10:05:39.396Z,-0.73
2022-12-13T10:08:23.249Z,-0.66
2022-12-13T10:10:52.971Z,-0.65
2022-12-13T10:13:41.844Z,-0.59
2022-12-13T10:16:23.481Z,-0.54
2022-12-13T10:18:51.331Z,-0.51
2022-12-13T10:21:26.654Z,-0.46
2022-12-13T10:24:23.662Z,-0.43
2022-12-13T10:26:40.457Z,-0.38
2022-12-13T10:29:08.320Z,-0.35
2022-12-13T10:31:52.748Z,-0.31
2022-12-13T10:34:30.734Z,-0.27
2022-12-13T10:36:59.609Z,-0.24
2022-12-13T10:39:42.526Z,-0.18
2022-12-13T10:42:22.898Z,-0.16
2022-12-13T10:45:15.099Z,-0.13
2022-12-13T10:47:45.987Z,-0.09
2022-12-13T10:50:27.910Z,-0.05
2022-12-13T10:52:56.770Z,-0.04
2022-12-13T10:55:35.061Z,0.01
2022-12-13T10:58:12.058Z,0.04
2022-12-13T11:00:47.355Z,0.06
2022-12-13T11:03:32.857Z,0.11
2022-12-13T11:06:18.051Z,0.14
2022-12-13T11:08:44.851Z,0.15
2022-12-13T11:11:12.423Z,0.18
2022-12-13T11:13:53.603Z,0.22
2022-12-13T11:16:40.923Z,0.24
2022-12-13T11:19:23.337Z,0.27
2022-12-13T11:21:54.295Z,0.29
2022-12-13T11:24:25.015Z,0.32
2022-12-13T11:27:03.400Z,0.36
2022-12-13T11:30:01.063Z,0.40
2022-12-13T11:32:39.794Z,0.42
2022-12-13T11:35:21.278Z,0.44
2022-12-13T11:38:42.253Z,0.48
2022-12-13T11:41:32.597Z,0.49
2022-12-13T11:44:11.715Z,0.52
2022-12-13T11:46:55.536Z,0.57
2022-12-13T11:49:42.240Z,0.62
2022-12-13T11:52:29.960Z,0.65
2022-12-13T11:55:00.029Z,0.67
2022-12-13T11:57:51.125Z,0.73
2022-12-13T12:00:35.491Z,0.76
2022-12-13T12:03:35.333Z,0.78
2022-12-13T12:06:09.276Z,0.81
2022-12-13T12:08:48.245Z,0.82
2022-12-13T12:11:43.880Z,0.83
2022-12-13T12:14:43.777Z,0.88
2022-12-13T12:17:16.286Z,0.92
2022-12-13T12:19:46.749Z,0.97
2022-12-13T12:22:48.121Z,1.01
2022-12-13T12:25:20.527Z,1.04
2022-12-13T12:28:10.510Z,1.08
2022-12-13T12:31:02.073Z,1.12
2022-12-13T12:34:05.404Z,1.15
2022-12-13T12:37:14.638Z,1.16
2022-12-13T12:40:15.209Z,1.18
2022-12-13T12:43:15.458Z,1.20
2022-12-13T12:46:22.853Z,1.22
2022-12-13T12:49:34.204Z,1.24
2022-12-13T12:52:30.687Z,1.24
2022-12-13T12:55:18.496Z,1.26
2022-12-13T12:58:01.318Z,1.30
2022-12-13T13:00:39.321Z,1.32
2022-12-13T13:03:25.223Z,1.34
2022-12-13T13:06:06.078Z,1.34
2022-12-13T13:09:01.464Z,1.36
2022-12-13T13:11:34.585Z,1.35
2022-12-13T13:14:31.639Z,1.36
2022-12-13T13:17:00.668Z,1.36
2022-12-13T13:19:33.459Z,1.39
2022-12-13T13:22:01.501Z,1.40
2022-12-13T13:24:31.611Z,1.42
2022-12-13T13:27:19.520Z,1.43
2022-12-13T13:29:46.379Z,1.43
2022-12-13T13:32:28.480Z,1.43
2022-12-13T13:35:28.563Z,1.43
2022-12-13T13:37:55.990Z,1.42
2022-12-13T13:40:35.765Z,1.42
2022-12-13T13:43:05.626Z,1.42
2022-12-13T13:45:51.448Z,1.42
2022-12-13T13:48:59.549Z,1.39
2022-12-13T13:52:27.370Z,1.38
2022-12-13T13:55:48.641Z,1.33
2022-12-13T13:58:50.919Z,1.33
2022-12-13T14:02:09.300Z,1.30
2022-12-13T14:05:18.390Z,1.29
2022-12-13T14:08:28.990Z,1.25
2022-12-13T14:11:19.904Z,1.24
2022-12-13T14:14:41.931Z,1.22
2022-12-13T14:18:00.750Z,1.18
2022-12-13T14:21:02.125Z,1.15
2022-12-13T14:24:05.817Z,1.13
2022-12-13T14:26:59.118Z,1.10
2022-12-13T14:29:38.649Z,1.07
2022-12-13T14:32:26.667Z,1.06
2022-12-13T14:34:58.517Z,1.05
2022-12-13T14:37:34.552Z,1.03
2022-12-13T14:40:12.137Z,1.01
2022-12-13T14:42:38.959Z,0.99
2022-12-13T14:45:28.440Z,0.96
2022-12-13T14:48:01.352Z,0.93
2022-12-13T14:50:32.390Z,0.89
2022-12-13T14:53:03.021Z,0.86
2022-12-13T14:55:36.521Z,0.86
2022-12-13T14:58:18.074Z,0.82
2022-12-13T15:00:45.997Z,0.80
2022-12-13T15:03:24.910Z,0.76
2022-12-13T15:05:58.962Z,0.74
2022-12-13T15:08:27.367Z,0.69
2022-12-13T15:10:59.722Z,0.64
2022-12-13T15:13:41.639Z,0.59
2022-12-13T15:16:25.524Z,0.52
2022-12-13T15:19:30.931Z,0.45
2022-12-13T15:22:07.525Z,0.40
2022-12-13T15:24:39.093Z,0.36
2022-12-13T15:27:07.989Z,0.32
2022-12-13T15:29:37.050Z,0.30
2022-12-13T15:32:04.245Z,0.27
2022-12-13T15:34:36.904Z,0.24
2022-12-13T15:37:28.381Z,0.18
2022-12-13T15:40:02.418Z,0.11
2022-12-13T15:42:46.692Z,0.06
2022-12-13T15:45:24.520Z,0.00
2022-12-13T15:47:53.016Z,-0.05
2022-12-13T15:50:43.680Z,-0.09
2022-12-13T15:53:28.597Z,-0.12
2022-12-13T15:55:55.794Z,-0.18
2022-12-13T15:58:27.149Z,-0.21
2022-12-13T16:00:54.387Z,-0.25
2022-12-13T16:03:25.081Z,-0.29
2022-12-13T16:05:56.929Z,-0.33
2022-12-13T16:08:36.926Z,-0.34
2022-12-13T16:11:05.143Z,-0.38
2022-12-13T16:13:37.831Z,-0.41
2022-12-13T16:16:29.953Z,-0.44
2022-12-13T16:19:00.705Z,-0.47
2022-12-13T16:21:29.903Z,-0.51
2022-12-13T16:23:56.661Z,-0.54
2022-12-13T16:26:27.522Z,-0.56
2022-12-13T16:28:57.731Z,-0.58
2022-12-13T16:31:36.415Z,-0.59
2022-12-13T16:34:05.205Z,-0.60
2022-12-13T16:36:32.660Z,-0.62
2022-12-13T16:38:59.483Z,-0.64
2022-12-13T16:41:26.266Z,-0.64
2022-12-13T16:43:56.783Z,-0.63
2022-12-13T16:47:16.835Z,-0.63
2022-12-13T16:49:29.952Z,-0.64
2022-12-13T16:51:57.189Z,-0.65
2022-12-13T16:54:25.506Z,-0.66
2022-12-13T16:56:54.019Z,-0.68
2022-12-13T16:59:25.553Z,-0.70
2022-12-13T17:01:52.982Z,-0.70
2022-12-13T17:04:24.457Z,-0.71
2022-12-13T17:06:54.739Z,-0.74
2022-12-13T17:09:22.552Z,-0.77
2022-12-13T17:11:49.335Z,-0.79
2022-12-13T17:14:16.117Z,-0.80
2022-12-13T17:16:43.005Z,-0.83
2022-12-13T17:19:11.938Z,-0.84
2022-12-13T17:21:38.722Z,-0.85
2022-12-13T17:24:05.905Z,-0.86
2022-12-13T17:26:32.722Z,-0.89
2022-12-13T17:28:59.530Z,-0.91
2022-12-13T17:31:29.238Z,-0.92
2022-12-13T17:34:02.680Z,-0.95
2022-12-13T17:36:31.247Z,-0.99
2022-12-13T17:38:58.028Z,-1.01
2022-12-13T17:41:25.129Z,-1.02
2022-12-13T17:43:51.903Z,-1.04
2022-12-13T17:46:19.332Z,-1.06
2022-12-13T17:48:46.610Z,-1.10
2022-12-13T17:51:14.405Z,-1.11
2022-12-13T17:53:43.577Z,-1.14
2022-12-13T17:56:14.989Z,-1.17
2022-12-13T17:58:42.516Z,-1.23
2022-12-13T18:01:23.561Z,-1.24
2022-12-13T18:03:54.033Z,-1.28
2022-12-13T18:06:20.901Z,-1.32
2022-12-13T18:08:48.335Z,-1.34
2022-12-13T18:11:34.466Z,-1.38
2022-12-13T18:14:04.956Z,-1.41
2022-12-13T18:16:36.971Z,-1.44
2022-12-13T18:19:11.620Z,-1.44
2022-12-13T18:21:38.555Z,-1.51
2022-12-13T18:24:07.030Z,-1.58
2022-12-13T18:26:34.530Z,-1.60
2022-12-13T18:29:01.874Z,-1.60
2022-12-13T18:31:28.739Z,-1.62
2022-12-13T18:33:56.037Z,-1.64
2022-12-13T18:36:25.168Z,-1.64
2022-12-13T18:38:52.691Z,-1.67
2022-12-13T18:41:23.240Z,-1.70
2022-12-13T18:43:59.280Z,-1.71
2022-12-13T18:46:27.515Z,-1.73
2022-12-13T18:48:54.329Z,-1.76
2022-12-13T18:51:21.318Z,-1.80
2022-12-13T18:53:48.112Z,-1.82
2022-12-13T18:56:19.048Z,-1.83
2022-12-13T18:58:47.937Z,-1.86
2022-12-13T19:01:16.448Z,-1.88
2022-12-13T19:03:47.896Z,-1.89
2022-12-13T19:06:22.250Z,-1.92
2022-12-13T19:08:52.451Z,-1.94
2022-12-13T19:11:20.287Z,-1.97
2022-12-13T19:13:48.340Z,-1.98
2022-12-13T19:16:19.922Z,-1.99
2022-12-13T19:18:46.941Z,-2.00
2022-12-13T19:21:17.244Z,-2.02
2022-12-13T19:23:47.326Z,-2.03
2022-12-13T19:26:16.769Z,-2.05
2022-12-13T19:28:44.445Z,-2.04
2022-12-13T19:31:15.706Z,-2.06
2022-12-13T19:33:43.655Z,-2.07
2022-12-13T19:36:11.364Z,-2.08
2022-12-13T19:38:39.739Z,-2.10
2022-12-13T19:41:10.901Z,-2.12
2022-12-13T19:43:37.814Z,-2.15
2022-12-13T19:46:05.281Z,-2.18
2022-12-13T19:48:32.477Z,-2.19
2022-12-13T19:51:03.827Z,-2.21
2022-12-13T19:53:31.159Z,-2.24
2022-12-13T19:55:58.635Z,-2.28
2022-12-13T19:58:26.496Z,-2.28
2022-12-13T20:01:00.908Z,-2.28
2022-12-13T20:03:28.168Z,-2.30
2022-12-13T20:05:59.879Z,-2.32
2022-12-13T20:08:26.725Z,-2.32
2022-12-13T20:10:59.855Z,-2.32
2022-12-13T20:13:27.122Z,-2.33
2022-12-13T20:15:54.819Z,-2.34
2022-12-13T20:18:21.777Z,-2.34
2022-12-13T20:21:10.369Z,-2.36
2022-12-13T20:23:37.163Z,-2.36
2022-12-13T20:26:08.557Z,-2.37
2022-12-13T20:28:35.323Z,-2.40
2022-12-13T20:31:20.601Z,-2.40
2022-12-13T20:33:48.036Z,-2.42
2022-12-13T20:36:26.960Z,-2.42
2022-12-13T20:38:56.515Z,-2.44
2022-12-13T20:41:25.813Z,-2.44
2022-12-13T20:43:58.198Z,-2.43
2022-12-13T20:46:27.194Z,-2.46
2022-12-13T20:48:57.415Z,-2.49
2022-12-13T20:51:27.364Z,-2.50
2022-12-13T20:53:55.314Z,-2.52
2022-12-13T20:56:25.733Z,-2.54
2022-12-13T20:58:52.701Z,-2.56
2022-12-13T21:01:25.307Z,-2.59
2022-12-13T21:03:58.325Z,-2.61
2022-12-13T21:06:25.072Z,-2.65
2022-12-13T21:08:51.899Z,-2.67
2022-12-13T21:11:28.744Z,-2.67
2022-12-13T21:14:11.210Z,-2.69
2022-12-13T21:16:45.776Z,-2.70
2022-12-13T21:19:25.167Z,-2.73
2022-12-13T21:21:53.766Z,-2.75
2022-12-13T21:24:23.040Z,-2.75
2022-12-13T21:26:51.141Z,-2.77
2022-12-13T21:29:18.674Z,-2.75
2022-12-13T21:31:49.777Z,-2.74
2022-12-13T21:34:17.620Z,-2.75
2022-12-13T21:36:46.981Z,-2.75
2022-12-13T21:39:17.058Z,-2.74
2022-12-13T21:41:44.658Z,-2.76
2022-12-13T21:44:14.312Z,-2.74
2022-12-13T21:47:10.675Z,-2.75
2022-12-13T21:49:28.889Z,-2.77
2022-12-13T21:51:55.886Z,-2.75
2022-12-13T21:54:22.727Z,-2.76
2022-12-13T21:57:08.355Z,-2.75
2022-12-13T21:59:35.180Z,-2.78
2022-12-13T22:02:11.635Z,-2.78
2022-12-13T22:04:52.769Z,-2.77
2022-12-13T22:07:26.629Z,-2.77
2022-12-13T22:09:55.125Z,-2.77
2022-12-13T22:12:30.195Z,-2.76
2022-12-13T22:14:57.026Z,-2.75
2022-12-13T22:17:33.035Z,-2.75
2022-12-13T22:20:02.586Z,-2.76
2022-12-13T22:22:29.501Z,-2.75
2022-12-13T22:24:56.327Z,-2.76
2022-12-13T22:27:24.362Z,-2.75
2022-12-13T22:29:59.578Z,-2.76
2022-12-13T22:32:30.239Z,-2.77
2022-12-13T22:34:56.997Z,-2.79
2022-12-13T22:37:24.715Z,-2.79
2022-12-13T22:39:51.513Z,-2.80
2022-12-13T22:42:18.279Z,-2.82
2022-12-13T22:44:45.038Z,-2.85
2022-12-13T22:47:11.872Z,-2.87
2022-12-13T22:49:38.818Z,-2.90
2022-12-13T22:52:05.819Z,-2.91
2022-12-13T22:54:32.616Z,-2.91
2022-12-13T22:56:59.370Z,-2.93
2022-12-13T22:59:26.129Z,-2.96
2022-12-13T23:02:01.353Z,-2.96
2022-12-13T23:04:29.111Z,-2.99
2022-12-13T23:06:55.909Z,-2.99
2022-12-13T23:09:22.908Z,-3.01
2022-12-13T23:12:08.113Z,-3.01
2022-12-13T23:14:34.925Z,-3.02
2022-12-13T23:17:03.068Z,-3.03
2022-12-13T23:19:41.541Z,-3.05
2022-12-13T23:22:15.965Z,-3.07
2022-12-13T23:24:42.896Z,-3.08
2022-12-13T23:27:09.725Z,-3.09
2022-12-13T23:29:36.660Z,-3.10
2022-12-13T23:32:03.729Z,-3.13
2022-12-13T23:34:31.282Z,-3.13
2022-12-13T23:36:58.066Z,-3.16
2022-12-13T23:39:24.843Z,-3.16
2022-12-13T23:41:51.929Z,-3.17
2022-12-13T23:44:18.708Z,-3.19
2022-12-13T23:46:48.255Z,-3.19
2022-12-13T23:49:16.439Z,-3.19
2022-12-13T23:51:43.294Z,-3.19
2022-12-13T23:54:16.124Z,-3.19
2022-12-13T23:56:43.069Z,-3.20
2022-12-13T23:59:10.081Z,-3.21
